Aeroporto :
LOGIN :

Iscrizione | Disclaimer

   EN    FR    IT 

 










Sommario :    VFR   VFR Marginale   IFR   IFR Intensivo   IFR Molto Intensivo
Visibilità : 
Base nubi : 
>= 8 km
>= 3000ft
5 / 8 km
1000 / 3000 ft
1500m / 5 km
500 / 1000 ft
800 / 1500m
200 / 500 ft
< 800m
< 200 ft
Simboli :   Temporali  Nebbia  Neve Forte  Precipitazioni Forti  Vento > 20 kt
SIGMETs :   Varie  Temporali  Ghiacco  Turbolenza  Onda orograficha  Ceneri Vulcaniche






- Altitudine del aeroporto : 39 ft


ETNH - Hohn AB

ULTIMO METAR :
  • 201620Z 28003KT 2000 -RA BR BKN001 BKN020 03/03 Q1017 RED

METARs OBSOLETI :
  • 201601Z 28004KT 2000 -RA BR OVC001 03/03 Q1017 RED FCST CANCEL
  • 201540Z 30003KT 1500 R26/6000N -DZ BR OVC001 03/03 Q1017 RED RED TEMPO YLO
  • 201520Z 29002KT 2000 -DZRA BR OVC001 03/03 Q1017 RED RED TEMPO YLO
  • 201420Z VRB02KT 2300 -RA BR OVC001 03/03 Q1018 RED RED BECMG YLO
  • 201349Z 27002KT 1800 R26/4600U -RA BR OVC001 03/03 Q1018 RED RED BECMG YLO

TAF AMD TAF ETNH
Valido dal 20 a 14 ore il 21 a 00 ore UTC


201425Z 2014/2024 VRB02KT 1500 BR BKN001
TEMPO 2014/2022 VRB03KT 3000 -RADZ BKN003
TEMPO 2022/2106 VRB01KT 0500 FG VV001 BY ETGL



MetMap, La meteo Aeronautica in un colpo d'occhio ! - Copyright ORBIFLY Dicembre 2007 - Disclaimer

ORBIFLY MET'MAP TEAM :

Programmazione e sviluppo : Alexandra Zaïnal
Concezione e sviluppo : Baudouin d'Aumeries
Co-Programmazione e sviluppo : Marc-Olivier Méhu
Supporto tecnico e logistico : Manuel Goepfert
Aiuto per la traduzione : Arnaldo La Scala

Contatto : metmap@orbifly.com




FONTI E CREDITI :

   NOAA